Time;durP1;ratioP1;P1;durP2;ratioP2;P2;SDS_P1;SDS_P2;PMS_P1;PMS_P2;Temp;Humidity;BMP_temperature;BMP_pressure;BME280_temperature;BME280_humidity;BME280_pressure;Samples;Min_cycle;Max_cycle;Signal;HPM_P1;HPM_P2
2021/01/25 00:00:44;;;;;;;3.28;1.70;;;;;;;;;;5046610;28;20487;-55
2021/01/25 00:03:10;;;;;;;0.45;0.20;;;;;;;;;;5031432;28;20562;-55
2021/01/25 00:05:37;;;;;;;0.77;0.45;;;;;;;;;;5031596;28;20066;-55
2021/01/25 00:08:03;;;;;;;0.82;0.40;;;;;;;;;;5030272;28;20041;-56
2021/01/25 00:10:29;;;;;;;0.70;0.40;;;;;;;;;;5035418;28;20477;-59
2021/01/25 00:12:56;;;;;;;0.75;0.30;;;;;;;;;;5031427;28;20041;-56
2021/01/25 00:15:22;;;;;;;2.70;1.20;;;;;;;;;;5032673;28;20028;-55
2021/01/25 00:17:48;;;;;;;1.42;0.70;;;;;;;;;;5031050;28;20025;-57
2021/01/25 00:20:14;;;;;;;1.75;0.90;;;;;;;;;;5032757;28;20083;-55
2021/01/25 00:22:40;;;;;;;1.30;0.90;;;;;;;;;;5032689;28;20380;-56
2021/01/25 00:25:07;;;;;;;3.72;1.80;;;;;;;;;;5031594;28;20095;-58
2021/01/25 00:27:33;;;;;;;1.98;1.08;;;;;;;;;;5032903;28;20095;-59
2021/01/25 00:29:59;;;;;;;0.70;0.45;;;;;;;;;;5031546;28;20024;-58
2021/01/25 00:32:25;;;;;;;1.20;0.70;;;;;;;;;;5032747;28;20081;-57
2021/01/25 00:34:51;;;;;;;0.55;0.30;;;;;;;;;;5032868;28;20030;-58
2021/01/25 00:37:17;;;;;;;1.23;0.40;;;;;;;;;;5034097;28;20333;-58
2021/01/25 00:39:43;;;;;;;1.92;0.60;;;;;;;;;;5033365;28;20071;-57
2021/01/25 00:42:09;;;;;;;2.50;0.90;;;;;;;;;;5033978;28;20056;-58
2021/01/25 00:44:35;;;;;;;2.25;0.50;;;;;;;;;;5032570;28;20388;-57
2021/01/25 00:47:01;;;;;;;0.30;0.10;;;;;;;;;;5032017;28;20037;-56
2021/01/25 00:49:27;;;;;;;0.85;0.25;;;;;;;;;;5029683;28;20100;-58
2021/01/25 00:51:53;;;;;;;1.85;0.38;;;;;;;;;;5030994;28;20320;-54
2021/01/25 00:54:19;;;;;;;0.93;0.40;;;;;;;;;;5026270;28;20110;-58
2021/01/25 00:56:48;;;;;;;0.75;0.30;;;;;;;;;;5015103;28;20425;-58
2021/01/25 00:59:14;;;;;;;0.30;0.10;;;;;;;;;;5020139;28;20040;-56
2021/01/25 01:01:40;;;;;;;0.35;0.20;;;;;;;;;;5023543;28;20032;-58
2021/01/25 01:04:06;;;;;;;0.43;0.20;;;;;;;;;;5025038;28;20121;-56
2021/01/25 01:06:32;;;;;;;1.33;0.30;;;;;;;;;;5026707;28;20424;-59
2021/01/25 01:08:58;;;;;;;1.05;0.30;;;;;;;;;;5031663;28;20490;-58
2021/01/25 01:11:25;;;;;;;14.63;5.63;;;;;;;;;;5029116;28;20434;-56
2021/01/25 01:13:51;;;;;;;0.98;0.60;;;;;;;;;;5031491;28;20029;-56
2021/01/25 01:16:17;;;;;;;2.33;0.80;;;;;;;;;;5028130;28;20033;-59
2021/01/25 01:18:43;;;;;;;3.00;1.30;;;;;;;;;;5022913;28;20079;-58
2021/01/25 01:21:09;;;;;;;1.23;0.60;;;;;;;;;;5025178;28;20060;-57
2021/01/25 01:23:35;;;;;;;2.60;1.15;;;;;;;;;;5031229;28;20040;-55
2021/01/25 01:26:01;;;;;;;1.67;0.80;;;;;;;;;;5030788;28;20477;-58
2021/01/25 01:28:27;;;;;;;4.05;2.05;;;;;;;;;;5031068;28;20488;-57
2021/01/25 01:30:53;;;;;;;7.55;3.25;;;;;;;;;;5030857;28;20022;-56
2021/01/25 01:33:19;;;;;;;5.68;2.42;;;;;;;;;;5028816;28;20050;-56
2021/01/25 01:35:45;;;;;;;3.00;1.48;;;;;;;;;;5032624;28;20096;-57
2021/01/25 01:38:11;;;;;;;5.45;2.85;;;;;;;;;;5032890;28;20027;-55
2021/01/25 01:40:37;;;;;;;0.65;0.40;;;;;;;;;;5032353;28;20029;-56
2021/01/25 01:43:03;;;;;;;0.70;0.50;;;;;;;;;;5032572;28;20481;-58
2021/01/25 01:45:29;;;;;;;0.77;0.50;;;;;;;;;;5025665;28;20429;-58
2021/01/25 01:47:56;;;;;;;0.40;0.30;;;;;;;;;;5032587;28;20026;-58
2021/01/25 01:50:22;;;;;;;0.50;0.30;;;;;;;;;;5032392;28;20054;-57
2021/01/25 01:52:49;;;;;;;3.95;2.22;;;;;;;;;;5032521;28;20021;-58
2021/01/25 01:55:15;;;;;;;1.00;0.70;;;;;;;;;;5031687;28;20022;-57
2021/01/25 01:57:41;;;;;;;3.08;0.95;;;;;;;;;;5032214;28;20096;-56
2021/01/25 02:00:08;;;;;;;4.65;1.23;;;;;;;;;;5032361;28;20025;-55
2021/01/25 02:02:34;;;;;;;2.20;1.25;;;;;;;;;;5029136;28;20030;-57
2021/01/25 02:05:01;;;;;;;3.20;1.20;;;;;;;;;;5023136;28;20037;-55
2021/01/25 02:07:28;;;;;;;4.28;1.30;;;;;;;;;;5022307;28;20135;-58
2021/01/25 02:09:54;;;;;;;2.13;0.70;;;;;;;;;;5028946;28;20418;-55
2021/01/25 02:12:21;;;;;;;2.28;0.70;;;;;;;;;;5024075;28;20075;-59
2021/01/25 02:14:47;;;;;;;1.20;0.60;;;;;;;;;;5027363;28;20021;-56
2021/01/25 02:17:14;;;;;;;2.38;0.50;;;;;;;;;;5029914;28;20538;-55
2021/01/25 02:19:43;;;;;;;1.73;0.70;;;;;;;;;;5028884;28;20381;-59
2021/01/25 02:22:18;;;;;;;2.53;0.77;;;;;;;;;;5031000;28;20033;-55
2021/01/25 02:25:08;;;;;;;2.10;0.45;;;;;;;;;;5028191;28;20033;-55
2021/01/25 02:27:35;;;;;;;2.00;0.90;;;;;;;;;;5027989;28;20056;-57
2021/01/25 02:30:01;;;;;;;0.95;0.60;;;;;;;;;;5031962;28;20520;-57
2021/01/25 02:32:31;;;;;;;1.20;0.70;;;;;;;;;;5032811;28;20049;-57
2021/01/25 02:34:57;;;;;;;2.40;0.98;;;;;;;;;;5033272;28;20072;-55
2021/01/25 02:37:23;;;;;;;2.38;1.02;;;;;;;;;;5029149;28;20018;-58
2021/01/25 02:39:52;;;;;;;2.90;1.00;;;;;;;;;;5032567;28;20041;-58
2021/01/25 02:42:20;;;;;;;1.38;0.80;;;;;;;;;;5032464;28;20087;-56
2021/01/25 02:44:47;;;;;;;2.35;0.93;;;;;;;;;;5030547;28;20037;-58
2021/01/25 02:47:15;;;;;;;1.85;0.98;;;;;;;;;;5030547;28;20036;-59
2021/01/25 02:49:41;;;;;;;2.10;1.02;;;;;;;;;;5031054;28;20079;-56
2021/01/25 02:52:07;;;;;;;1.20;0.60;;;;;;;;;;5030348;28;20509;-58
2021/01/25 02:54:34;;;;;;;2.00;0.80;;;;;;;;;;5028483;28;20156;-56
2021/01/25 02:57:00;;;;;;;0.98;0.50;;;;;;;;;;5031547;28;20496;-56
2021/01/25 02:59:27;;;;;;;1.63;0.93;;;;;;;;;;5024658;28;20481;-59
2021/01/25 03:01:53;;;;;;;2.70;1.45;;;;;;;;;;5028981;28;20484;-56
2021/01/25 03:04:19;;;;;;;3.50;1.83;;;;;;;;;;5022144;28;20117;-56
2021/01/25 03:06:46;;;;;;;2.90;1.48;;;;;;;;;;5029999;28;20500;-55
2021/01/25 03:09:12;;;;;;;3.70;1.30;;;;;;;;;;5029620;28;20032;-59
2021/01/25 03:11:39;;;;;;;2.42;1.20;;;;;;;;;;5031377;28;20033;-56
2021/01/25 03:14:05;;;;;;;4.25;2.00;;;;;;;;;;5031023;28;20029;-56
2021/01/25 03:16:31;;;;;;;3.03;1.90;;;;;;;;;;5026341;28;20022;-56
2021/01/25 03:18:57;;;;;;;3.50;1.63;;;;;;;;;;5031332;28;20415;-56
2021/01/25 03:21:24;;;;;;;2.17;0.85;;;;;;;;;;5027034;28;20097;-56
2021/01/25 03:23:51;;;;;;;4.63;2.30;;;;;;;;;;5030221;28;20060;-57
2021/01/25 03:26:17;;;;;;;2.88;1.10;;;;;;;;;;5028295;28;20048;-56
2021/01/25 03:28:44;;;;;;;2.45;0.90;;;;;;;;;;5028659;28;20021;-56
2021/01/25 03:31:10;;;;;;;2.65;1.27;;;;;;;;;;5030225;28;20029;-56
2021/01/25 03:33:36;;;;;;;4.40;1.48;;;;;;;;;;5025823;28;20034;-55
2021/01/25 03:36:02;;;;;;;2.40;1.27;;;;;;;;;;5035279;28;20028;-55
2021/01/25 03:38:28;;;;;;;3.63;0.88;;;;;;;;;;5034781;28;20018;-56
2021/01/25 03:40:54;;;;;;;2.28;0.90;;;;;;;;;;5035086;28;20501;-59
2021/01/25 03:43:20;;;;;;;3.05;1.08;;;;;;;;;;5034903;28;20112;-59
2021/01/25 03:45:46;;;;;;;2.25;1.20;;;;;;;;;;5034764;28;20033;-56
2021/01/25 03:48:12;;;;;;;3.15;1.15;;;;;;;;;;5035242;28;20028;-56
2021/01/25 03:50:38;;;;;;;2.35;1.20;;;;;;;;;;5034928;28;20030;-56
2021/01/25 03:53:04;;;;;;;3.08;1.27;;;;;;;;;;5034872;28;20053;-56
2021/01/25 03:55:31;;;;;;;1.85;0.90;;;;;;;;;;5034537;28;20053;-59
2021/01/25 03:57:57;;;;;;;1.63;0.93;;;;;;;;;;5034606;28;20469;-55
2021/01/25 04:00:23;;;;;;;2.80;1.08;;;;;;;;;;5034714;28;20508;-56
2021/01/25 04:02:49;;;;;;;4.45;1.10;;;;;;;;;;5032586;28;20036;-56
2021/01/25 04:05:15;;;;;;;2.90;1.25;;;;;;;;;;5025733;28;20424;-59
2021/01/25 04:07:42;;;;;;;2.45;1.20;;;;;;;;;;5034197;28;20037;-56
2021/01/25 04:10:08;;;;;;;2.92;1.30;;;;;;;;;;5034183;28;20018;-57
2021/01/25 04:12:34;;;;;;;3.40;1.60;;;;;;;;;;5034542;28;20170;-56
2021/01/25 04:15:00;;;;;;;5.03;1.80;;;;;;;;;;5032829;28;20017;-55
2021/01/25 04:17:26;;;;;;;4.18;1.50;;;;;;;;;;5032527;28;20017;-56
2021/01/25 04:19:52;;;;;;;3.20;1.70;;;;;;;;;;5034137;28;20167;-56
2021/01/25 04:22:18;;;;;;;2.42;1.30;;;;;;;;;;5034180;28;20029;-55
2021/01/25 04:24:44;;;;;;;3.22;1.50;;;;;;;;;;5034286;28;20018;-56
2021/01/25 04:27:13;;;;;;;2.42;1.25;;;;;;;;;;5033845;28;20033;-55
2021/01/25 04:29:39;;;;;;;3.20;1.23;;;;;;;;;;5034044;28;20013;-55
2021/01/25 04:32:05;;;;;;;3.40;1.30;;;;;;;;;;5033574;28;20053;-55
2021/01/25 04:34:31;;;;;;;5.30;2.17;;;;;;;;;;5033347;28;20045;-56
2021/01/25 04:36:58;;;;;;;5.00;1.80;;;;;;;;;;5033912;28;20358;-55
2021/01/25 04:39:24;;;;;;;2.40;1.40;;;;;;;;;;5034140;28;20485;-56
2021/01/25 04:41:50;;;;;;;3.95;1.90;;;;;;;;;;5033475;28;20025;-56
2021/01/25 04:44:18;;;;;;;10.13;4.60;;;;;;;;;;5033693;28;20032;-56
2021/01/25 04:46:44;;;;;;;9.88;4.45;;;;;;;;;;5033629;28;20073;-56
2021/01/25 04:49:14;;;;;;;7.10;3.88;;;;;;;;;;5033519;28;20428;-56
2021/01/25 04:51:41;;;;;;;6.47;3.15;;;;;;;;;;5033213;28;20026;-56
2021/01/25 04:54:08;;;;;;;6.95;3.22;;;;;;;;;;5033581;28;20033;-57
2021/01/25 04:56:35;;;;;;;5.57;3.20;;;;;;;;;;5033618;28;20091;-58
2021/01/25 04:59:01;;;;;;;5.85;3.78;;;;;;;;;;5033373;28;20029;-56
2021/01/25 05:01:27;;;;;;;10.32;4.95;;;;;;;;;;5033494;28;20033;-59
2021/01/25 05:03:53;;;;;;;15.98;7.32;;;;;;;;;;5024245;28;20043;-55
2021/01/25 05:06:20;;;;;;;18.83;8.63;;;;;;;;;;5033407;28;20045;-56
2021/01/25 05:08:46;;;;;;;19.27;9.32;;;;;;;;;;5033400;28;20389;-56
2021/01/25 05:11:13;;;;;;;10.50;5.35;;;;;;;;;;5033133;28;20037;-55
2021/01/25 05:13:39;;;;;;;11.68;5.10;;;;;;;;;;5033326;28;20030;-54
2021/01/25 05:16:15;;;;;;;13.25;6.60;;;;;;;;;;5033237;28;20143;-56
2021/01/25 05:18:41;;;;;;;13.10;6.53;;;;;;;;;;5033341;28;20380;-56
2021/01/25 05:21:07;;;;;;;13.13;6.45;;;;;;;;;;5033342;28;20029;-58
2021/01/25 05:23:40;;;;;;;9.70;5.45;;;;;;;;;;5032853;28;20114;-56
2021/01/25 05:26:07;;;;;;;10.18;5.85;;;;;;;;;;5032100;28;20034;-57
2021/01/25 05:28:40;;;;;;;12.38;6.97;;;;;;;;;;5032999;28;20033;-58
2021/01/25 05:31:17;;;;;;;16.83;8.85;;;;;;;;;;5033020;28;20043;-56
2021/01/25 05:33:43;;;;;;;15.88;9.45;;;;;;;;;;5033210;28;20029;-58
2021/01/25 05:36:09;;;;;;;24.52;13.93;;;;;;;;;;5032782;28;20401;-57
2021/01/25 05:38:35;;;;;;;42.17;24.45;;;;;;;;;;5032797;28;20021;-56
2021/01/25 05:41:05;;;;;;;28.98;17.52;;;;;;;;;;5032909;28;20232;-56
2021/01/25 05:43:32;;;;;;;25.42;15.30;;;;;;;;;;5032715;28;20048;-58
2021/01/25 05:46:11;;;;;;;25.45;17.70;;;;;;;;;;5032865;28;20075;-56
2021/01/25 05:48:38;;;;;;;24.85;16.35;;;;;;;;;;5032788;28;20405;-57
2021/01/25 05:51:13;;;;;;;27.95;18.17;;;;;;;;;;5032656;28;20029;-56
2021/01/25 05:53:39;;;;;;;23.27;14.52;;;;;;;;;;5032724;28;20045;-56
2021/01/25 05:56:06;;;;;;;24.15;13.68;;;;;;;;;;5022939;28;20060;-56
2021/01/25 05:58:32;;;;;;;54.38;26.88;;;;;;;;;;5032586;28;20031;-55
2021/01/25 06:00:59;;;;;;;53.05;26.98;;;;;;;;;;5032444;28;20064;-58
2021/01/25 06:03:27;;;;;;;50.72;25.58;;;;;;;;;;5032761;28;20031;-55
2021/01/25 06:05:53;;;;;;;26.40;13.50;;;;;;;;;;5032439;28;20029;-56
2021/01/25 06:08:35;;;;;;;20.17;11.13;;;;;;;;;;5032545;28;20469;-57
2021/01/25 06:11:09;;;;;;;21.45;11.10;;;;;;;;;;5026644;28;20036;-55
2021/01/25 06:13:53;;;;;;;20.38;11.70;;;;;;;;;;5026171;28;20488;-56
2021/01/25 06:16:21;;;;;;;17.80;11.02;;;;;;;;;;5024737;28;20088;-55
2021/01/25 06:18:48;;;;;;;23.13;13.45;;;;;;;;;;5031955;28;20105;-55
2021/01/25 06:21:16;;;;;;;21.08;10.80;;;;;;;;;;5029768;28;20452;-56
2021/01/25 06:23:43;;;;;;;16.95;9.75;;;;;;;;;;5029814;28;20527;-54
2021/01/25 06:26:09;;;;;;;15.75;9.48;;;;;;;;;;5030145;28;20038;-56
2021/01/25 06:28:35;;;;;;;13.60;8.13;;;;;;;;;;5026269;28;20424;-57
2021/01/25 06:31:05;;;;;;;14.73;7.93;;;;;;;;;;5026253;28;20017;-55
2021/01/25 06:33:35;;;;;;;17.42;9.88;;;;;;;;;;5020590;28;20049;-57
2021/01/25 06:36:01;;;;;;;20.33;11.07;;;;;;;;;;5026493;28;20045;-56
2021/01/25 06:38:27;;;;;;;23.42;12.82;;;;;;;;;;5022002;28;20037;-57
2021/01/25 06:40:53;;;;;;;27.50;16.90;;;;;;;;;;5025137;28;20479;-56
2021/01/25 06:43:20;;;;;;;38.90;22.73;;;;;;;;;;5023772;28;20399;-57
2021/01/25 06:45:48;;;;;;;38.17;21.83;;;;;;;;;;5019120;28;20390;-56
2021/01/25 06:48:17;;;;;;;25.35;15.15;;;;;;;;;;5018252;28;20476;-56
2021/01/25 06:50:45;;;;;;;25.50;15.00;;;;;;;;;;5013344;28;20022;-56
2021/01/25 06:53:12;;;;;;;24.38;14.50;;;;;;;;;;5014333;28;20037;-56
2021/01/25 06:55:40;;;;;;;17.75;11.05;;;;;;;;;;5025395;28;20073;-56
2021/01/25 06:58:07;;;;;;;18.83;10.82;;;;;;;;;;5013129;28;20022;-58
2021/01/25 07:00:34;;;;;;;21.25;12.05;;;;;;;;;;5014913;28;20029;-56
